createdAt,value
2023-10-17T00:02:11.829Z,31.13
2023-10-17T00:04:42.549Z,31.15
2023-10-17T00:07:09.544Z,31.05
2023-10-17T00:09:38.734Z,29.98
2023-10-17T00:12:15.138Z,31.05
2023-10-17T00:14:54.351Z,28.92
2023-10-17T00:17:21.445Z,29.42
2023-10-17T00:19:50.434Z,30.63
2023-10-17T00:22:20.051Z,29.05
2023-10-17T00:24:48.195Z,30.33
2023-10-17T00:27:15.654Z,28.65
2023-10-17T00:29:42.298Z,29.73
2023-10-17T00:32:13.840Z,28.38
2023-10-17T00:34:41.963Z,29.02
2023-10-17T00:37:12.445Z,28.40
2023-10-17T00:39:39.746Z,28.45
2023-10-17T00:42:08.108Z,28.17
2023-10-17T00:44:37.849Z,27.88
2023-10-17T00:47:06.179Z,28.02
2023-10-17T00:49:38.929Z,29.13
2023-10-17T00:52:05.344Z,29.10
2023-10-17T00:54:33.379Z,30.15
2023-10-17T00:57:07.053Z,29.27
2023-10-17T00:59:33.504Z,30.08
2023-10-17T01:02:08.198Z,28.80
2023-10-17T01:04:41.221Z,28.05
2023-10-17T01:07:08.972Z,26.58
2023-10-17T01:09:36.484Z,28.67
2023-10-17T01:12:09.673Z,29.48
2023-10-17T01:14:36.846Z,26.98
2023-10-17T01:17:08.000Z,25.60
2023-10-17T01:19:35.001Z,27.25
2023-10-17T01:22:01.756Z,26.08
2023-10-17T01:24:28.490Z,26.63
2023-10-17T01:26:56.631Z,26.25
2023-10-17T01:29:23.233Z,26.45
2023-10-17T01:31:51.469Z,26.65
2023-10-17T01:34:19.127Z,28.92
2023-10-17T01:36:48.502Z,26.83
2023-10-17T01:39:15.205Z,28.20
2023-10-17T01:41:47.600Z,28.23
2023-10-17T01:44:14.096Z,29.67
2023-10-17T01:46:40.501Z,27.70
2023-10-17T01:49:13.951Z,29.85
2023-10-17T01:51:49.430Z,25.45
2023-10-17T01:54:18.960Z,27.38
2023-10-17T01:56:48.487Z,25.83
2023-10-17T01:59:18.864Z,26.02
2023-10-17T02:01:45.547Z,24.42
2023-10-17T02:04:14.300Z,25.17
2023-10-17T02:06:41.734Z,26.45
2023-10-17T02:09:31.376Z,25.13
2023-10-17T02:11:58.243Z,24.75
2023-10-17T02:14:24.991Z,24.60
2023-10-17T02:16:51.462Z,26.60
2023-10-17T02:19:20.900Z,26.90
2023-10-17T02:21:51.757Z,26.65
2023-10-17T02:24:21.488Z,26.27
2023-10-17T02:26:56.596Z,25.42
2023-10-17T02:29:40.211Z,25.30
2023-10-17T02:32:12.490Z,27.30
2023-10-17T02:34:39.448Z,24.73
2023-10-17T02:37:11.478Z,26.85
2023-10-17T02:39:39.124Z,23.77
2023-10-17T02:42:09.615Z,25.45
2023-10-17T02:44:41.196Z,24.75
2023-10-17T02:47:12.026Z,25.08
2023-10-17T02:49:38.595Z,26.63
2023-10-17T02:52:06.668Z,26.63
2023-10-17T02:54:53.449Z,24.60
2023-10-17T02:57:19.828Z,23.08
2023-10-17T02:59:47.061Z,25.15
2023-10-17T03:02:13.420Z,24.50
2023-10-17T03:04:43.562Z,24.23
2023-10-17T03:07:12.473Z,24.52
2023-10-17T03:09:40.859Z,23.52
2023-10-17T03:12:07.445Z,24.10
2023-10-17T03:14:40.234Z,22.70
2023-10-17T03:17:07.970Z,24.95
2023-10-17T03:19:34.968Z,23.63
2023-10-17T03:22:17.551Z,24.60
2023-10-17T03:24:45.367Z,23.23
2023-10-17T03:27:13.145Z,23.83
2023-10-17T03:29:47.136Z,22.88
2023-10-17T03:32:14.093Z,24.70
2023-10-17T03:34:46.195Z,22.42
2023-10-17T03:37:25.428Z,23.90
2023-10-17T03:39:53.397Z,23.85
2023-10-17T03:42:39.404Z,25.52
2023-10-17T03:45:27.606Z,26.23
2023-10-17T03:47:54.899Z,23.55
2023-10-17T03:50:45.244Z,23.63
2023-10-17T03:53:25.941Z,21.77
2023-10-17T03:55:52.957Z,23.33
2023-10-17T03:58:23.960Z,23.02
2023-10-17T04:00:54.680Z,23.50
2023-10-17T04:03:31.554Z,23.38
2023-10-17T04:06:09.314Z,21.65
2023-10-17T04:08:49.360Z,22.80
2023-10-17T04:11:20.450Z,22.42
2023-10-17T04:13:50.610Z,23.42
2023-10-17T04:16:22.696Z,22.67
2023-10-17T04:18:56.429Z,25.45
2023-10-17T04:21:32.598Z,23.70
2023-10-17T04:24:00.836Z,25.38
2023-10-17T04:26:30.771Z,23.55
2023-10-17T04:29:01.879Z,24.17
2023-10-17T04:31:31.124Z,24.17
2023-10-17T04:34:07.580Z,23.55
2023-10-17T04:36:38.554Z,23.25
2023-10-17T04:39:24.891Z,23.88
2023-10-17T04:41:52.765Z,24.67
2023-10-17T04:44:37.349Z,25.20
2023-10-17T04:49:37.963Z,20.48
2023-10-17T04:52:07.923Z,24.80
2023-10-17T04:54:38.250Z,24.80
2023-10-17T04:57:06.359Z,23.67
2023-10-17T04:59:49.562Z,24.50
2023-10-17T05:02:21.341Z,23.25
2023-10-17T05:04:55.047Z,23.50
2023-10-17T05:07:29.361Z,25.10
2023-10-17T05:12:59.364Z,21.15
2023-10-17T05:15:44.219Z,21.77
2023-10-17T05:18:29.626Z,23.38
2023-10-17T05:21:14.848Z,22.45
2023-10-17T05:24:00.281Z,23.17
2023-10-17T05:26:44.972Z,24.20
2023-10-17T05:29:29.720Z,22.35
2023-10-17T05:32:14.446Z,24.38
2023-10-17T05:35:01.048Z,23.75
2023-10-17T05:37:46.745Z,21.98
2023-10-17T05:40:31.412Z,22.27
2023-10-17T05:43:16.153Z,21.50
2023-10-17T05:46:00.929Z,24.63
2023-10-17T05:48:45.863Z,24.35
2023-10-17T05:51:30.644Z,24.20
2023-10-17T05:57:03.435Z,22.08
2023-10-17T05:59:48.173Z,22.48
2023-10-17T06:02:33.134Z,22.52
2023-10-17T06:05:17.852Z,22.05
2023-10-17T06:08:02.658Z,21.95
2023-10-17T06:10:49.486Z,23.17
2023-10-17T06:13:34.260Z,22.65
2023-10-17T06:16:19.082Z,22.60
2023-10-17T06:18:50.645Z,22.25
2023-10-17T06:21:20.209Z,24.80
2023-10-17T06:23:50.069Z,25.98
2023-10-17T06:26:41.770Z,23.90
2023-10-17T06:29:17.895Z,23.70
2023-10-17T06:32:16.231Z,23.00
2023-10-17T06:34:46.094Z,23.05
2023-10-17T06:37:29.184Z,24.10
2023-10-17T06:39:59.381Z,23.30
2023-10-17T06:42:30.979Z,24.35
2023-10-17T06:45:12.137Z,24.50
2023-10-17T06:47:48.600Z,24.45
2023-10-17T06:50:15.368Z,23.17
2023-10-17T06:53:02.302Z,25.52
2023-10-17T06:55:44.438Z,24.77
2023-10-17T06:58:12.112Z,26.00
2023-10-17T07:00:55.554Z,25.27
2023-10-17T07:03:28.995Z,23.05
2023-10-17T07:06:12.407Z,25.48
2023-10-17T07:11:25.574Z,19.27
2023-10-17T07:14:07.224Z,23.45
2023-10-17T07:16:43.129Z,22.95
2023-10-17T07:19:24.946Z,23.98
2023-10-17T07:22:01.634Z,23.33
2023-10-17T07:24:32.870Z,24.95
2023-10-17T07:27:00.083Z,24.10
2023-10-17T07:29:26.704Z,25.27
2023-10-17T07:31:55.050Z,25.02
2023-10-17T07:34:25.273Z,26.48
2023-10-17T07:37:10.902Z,23.70
2023-10-17T07:39:40.005Z,25.35
2023-10-17T07:42:15.367Z,25.05
2023-10-17T07:44:44.688Z,24.05
2023-10-17T07:47:20.885Z,25.92
2023-10-17T07:49:48.930Z,25.40
2023-10-17T07:52:18.671Z,25.95
2023-10-17T07:55:06.236Z,25.83
2023-10-17T07:57:37.395Z,25.05
2023-10-17T08:00:24.874Z,25.50
2023-10-17T08:02:53.147Z,25.70
2023-10-17T08:05:27.850Z,27.45
2023-10-17T08:08:05.445Z,26.90
2023-10-17T08:10:36.524Z,27.83
2023-10-17T08:13:03.445Z,27.27
2023-10-17T08:15:49.141Z,27.23
2023-10-17T08:18:16.200Z,26.35
2023-10-17T08:20:49.078Z,26.40
2023-10-17T08:23:20.705Z,24.98
2023-10-17T08:25:57.871Z,24.05
2023-10-17T08:28:42.999Z,24.80
2023-10-17T08:31:19.549Z,23.65
2023-10-17T08:33:51.785Z,26.13
2023-10-17T08:36:18.284Z,25.95
2023-10-17T08:38:44.718Z,26.95
2023-10-17T08:41:11.107Z,24.35
2023-10-17T08:43:37.591Z,24.05
2023-10-17T08:46:12.028Z,21.00
2023-10-17T08:48:38.695Z,19.67
2023-10-17T08:51:18.345Z,20.20
2023-10-17T08:53:55.868Z,20.75
2023-10-17T08:56:22.672Z,21.98
2023-10-17T08:58:49.189Z,19.80
2023-10-17T09:01:19.788Z,19.30
2023-10-17T09:03:48.290Z,19.25
2023-10-17T09:06:21.032Z,18.80
2023-10-17T09:08:56.696Z,21.33
2023-10-17T09:11:35.574Z,18.83
2023-10-17T09:14:16.365Z,18.77
2023-10-17T09:17:15.791Z,18.80
2023-10-17T09:19:52.013Z,20.15
2023-10-17T09:22:21.570Z,22.60
2023-10-17T09:24:51.321Z,20.83
2023-10-17T09:27:19.750Z,20.40
2023-10-17T09:29:48.060Z,19.67
2023-10-17T09:32:37.570Z,20.13
2023-10-17T09:35:11.702Z,19.75
2023-10-17T09:37:40.177Z,18.45
2023-10-17T09:40:13.168Z,18.42
2023-10-17T09:42:47.380Z,17.10
2023-10-17T09:45:33.425Z,16.02
2023-10-17T09:48:07.582Z,18.33
2023-10-17T09:50:36.408Z,19.75
2023-10-17T09:53:25.028Z,21.42
2023-10-17T09:55:51.981Z,18.52
2023-10-17T09:58:30.061Z,20.52
2023-10-17T10:01:01.787Z,20.02
2023-10-17T10:03:29.787Z,22.40
2023-10-17T10:06:27.202Z,17.48
2023-10-17T10:08:58.257Z,17.10
2023-10-17T10:11:51.210Z,16.08
2023-10-17T10:14:42.040Z,12.10
2023-10-17T10:17:10.182Z,12.93
2023-10-17T10:19:43.092Z,8.85
2023-10-17T10:22:14.988Z,14.70
2023-10-17T10:24:43.305Z,14.05
2023-10-17T10:27:10.264Z,12.27
2023-10-17T10:29:37.200Z,10.18
2023-10-17T10:32:07.191Z,15.57
2023-10-17T10:34:36.754Z,15.27
2023-10-17T10:37:10.998Z,12.00
2023-10-17T10:39:37.583Z,10.55
2023-10-17T10:42:08.253Z,9.23
2023-10-17T10:44:42.762Z,9.18
2023-10-17T10:47:11.203Z,8.30
2023-10-17T10:49:37.771Z,7.07
2023-10-17T10:52:04.441Z,7.43
2023-10-17T10:54:51.644Z,6.88
2023-10-17T10:57:30.131Z,7.70
2023-10-17T10:59:56.682Z,7.90
2023-10-17T11:02:24.060Z,9.95
2023-10-17T11:04:54.023Z,9.18
2023-10-17T11:07:24.900Z,11.13
2023-10-17T11:10:08.945Z,11.05
2023-10-17T11:12:35.943Z,12.45
2023-10-17T11:15:22.834Z,11.00
2023-10-17T11:17:49.313Z,10.43
2023-10-17T11:20:16.306Z,9.65
2023-10-17T11:22:43.763Z,9.82
2023-10-17T11:25:15.112Z,9.98
2023-10-17T11:28:03.286Z,9.75
2023-10-17T11:30:37.319Z,8.95
2023-10-17T11:33:05.370Z,10.73
2023-10-17T11:35:33.656Z,8.77
2023-10-17T11:38:08.288Z,11.35
2023-10-17T11:40:40.139Z,12.38
2023-10-17T11:43:20.528Z,12.57
2023-10-17T11:45:47.967Z,11.88
2023-10-17T11:48:31.148Z,9.65
2023-10-17T11:51:08.817Z,11.85
2023-10-17T11:53:35.793Z,10.05
2023-10-17T11:56:03.083Z,9.70
2023-10-17T11:58:30.397Z,9.07
2023-10-17T12:00:57.619Z,8.40
2023-10-17T12:03:27.244Z,7.35
2023-10-17T12:05:55.022Z,6.93
2023-10-17T12:08:26.291Z,7.55
2023-10-17T12:10:54.455Z,7.25
2023-10-17T12:13:21.059Z,7.18
2023-10-17T12:15:47.987Z,7.53
2023-10-17T12:18:14.771Z,7.60
2023-10-17T12:20:44.420Z,8.38
2023-10-17T12:23:17.404Z,7.03
2023-10-17T12:25:44.249Z,6.78
2023-10-17T12:28:10.660Z,7.50
2023-10-17T12:30:37.473Z,8.45
2023-10-17T12:33:06.024Z,9.45
2023-10-17T12:35:33.030Z,10.15
2023-10-17T12:38:00.717Z,12.13
2023-10-17T12:40:27.717Z,9.05
2023-10-17T12:42:57.578Z,10.38
2023-10-17T12:45:25.656Z,9.38
2023-10-17T12:47:52.653Z,10.10
2023-10-17T12:50:22.066Z,9.27
2023-10-17T12:52:48.699Z,10.60
2023-10-17T12:55:15.156Z,12.85
2023-10-17T12:57:41.783Z,8.80
2023-10-17T13:00:13.178Z,9.10
2023-10-17T13:02:40.742Z,11.45
2023-10-17T13:05:10.328Z,9.20
2023-10-17T13:07:40.428Z,11.85
2023-10-17T13:10:08.247Z,11.93
2023-10-17T13:12:35.081Z,12.98
2023-10-17T13:15:01.575Z,8.65
2023-10-17T13:17:29.781Z,8.38
2023-10-17T13:19:58.526Z,6.30
2023-10-17T13:22:25.007Z,6.65
2023-10-17T13:24:51.513Z,7.13
2023-10-17T13:27:20.729Z,6.50
2023-10-17T13:29:48.632Z,5.90
2023-10-17T13:32:15.121Z,7.68
2023-10-17T13:34:41.536Z,9.88
2023-10-17T13:37:09.414Z,8.45
2023-10-17T13:39:38.104Z,9.50
2023-10-17T13:42:05.355Z,9.48
2023-10-17T13:44:32.305Z,9.77
2023-10-17T13:46:58.834Z,8.60
2023-10-17T13:49:27.134Z,8.90
2023-10-17T13:51:55.989Z,9.77
2023-10-17T13:54:22.702Z,9.38
2023-10-17T13:56:52.112Z,8.80
2023-10-17T13:59:18.541Z,10.25
2023-10-17T14:01:47.767Z,9.23
2023-10-17T14:04:14.537Z,10.15
2023-10-17T14:06:43.364Z,9.75
2023-10-17T14:09:17.534Z,9.60
2023-10-17T14:11:48.079Z,9.82
2023-10-17T14:14:17.912Z,10.38
2023-10-17T14:16:45.189Z,9.20
2023-10-17T14:19:31.801Z,9.95
2023-10-17T14:22:22.114Z,9.07
2023-10-17T14:24:54.573Z,10.00
2023-10-17T14:27:23.992Z,9.40
2023-10-17T14:29:51.925Z,10.50
2023-10-17T14:32:21.397Z,10.20
2023-10-17T14:34:49.299Z,10.23
2023-10-17T14:37:16.298Z,10.82
2023-10-17T14:39:45.659Z,9.20
2023-10-17T14:42:14.855Z,10.35
2023-10-17T14:44:43.999Z,11.20
2023-10-17T14:47:10.395Z,10.15
2023-10-17T14:49:37.296Z,10.45
2023-10-17T14:52:03.940Z,9.40
2023-10-17T14:54:32.679Z,10.75
2023-10-17T14:57:03.080Z,10.35
2023-10-17T14:59:29.696Z,10.52
2023-10-17T15:01:56.547Z,10.82
2023-10-17T15:04:23.126Z,11.43
2023-10-17T15:06:49.681Z,10.60
2023-10-17T15:09:19.523Z,10.60
2023-10-17T15:11:47.126Z,10.68
2023-10-17T15:14:13.535Z,11.07
2023-10-17T15:16:40.147Z,11.13
2023-10-17T15:19:10.325Z,11.20
2023-10-17T15:21:37.007Z,10.65
2023-10-17T15:24:03.628Z,11.32
2023-10-17T15:26:30.054Z,8.70
2023-10-17T15:28:56.556Z,9.85
2023-10-17T15:31:23.181Z,9.52
2023-10-17T15:33:50.380Z,9.50
2023-10-17T15:36:27.260Z,9.50
2023-10-17T15:38:54.951Z,10.02
2023-10-17T15:41:22.429Z,10.18
2023-10-17T15:43:48.798Z,10.50
2023-10-17T15:46:16.854Z,10.32
2023-10-17T15:48:43.707Z,10.68
2023-10-17T15:51:10.358Z,11.10
2023-10-17T15:53:36.765Z,10.30
2023-10-17T15:56:03.679Z,9.98
2023-10-17T15:58:32.362Z,10.57
2023-10-17T16:00:59.137Z,11.48
2023-10-17T16:03:26.070Z,9.70
2023-10-17T16:05:54.134Z,9.73
2023-10-17T16:08:21.966Z,9.57
2023-10-17T16:10:58.123Z,10.23
2023-10-17T16:13:25.161Z,9.50
2023-10-17T16:15:59.912Z,9.45
2023-10-17T16:18:27.663Z,8.98
2023-10-17T16:20:54.182Z,9.20
2023-10-17T16:23:21.504Z,9.55
2023-10-17T16:25:51.946Z,8.65
2023-10-17T16:28:18.470Z,9.40
2023-10-17T16:30:45.523Z,8.45
2023-10-17T16:33:14.137Z,8.57
2023-10-17T16:35:43.307Z,10.00
2023-10-17T16:38:12.992Z,8.98
2023-10-17T16:40:44.529Z,9.70
2023-10-17T16:43:12.025Z,8.40
2023-10-17T16:45:38.555Z,8.77
2023-10-17T16:48:08.277Z,9.10
2023-10-17T16:50:34.712Z,9.13
2023-10-17T16:53:01.160Z,9.32
2023-10-17T16:55:27.885Z,8.88
2023-10-17T16:57:54.692Z,9.88
2023-10-17T17:00:21.695Z,9.60
2023-10-17T17:02:48.373Z,9.63
2023-10-17T17:05:15.871Z,12.20
2023-10-17T17:07:43.035Z,17.58
2023-10-17T17:10:14.907Z,13.23
2023-10-17T17:12:46.373Z,16.05
2023-10-17T17:15:14.133Z,14.10
2023-10-17T17:17:41.543Z,13.70
2023-10-17T17:20:15.411Z,12.27
2023-10-17T17:22:42.451Z,11.10
2023-10-17T17:25:14.759Z,11.73
2023-10-17T17:27:42.372Z,13.80
2023-10-17T17:30:09.724Z,12.88
2023-10-17T17:32:36.662Z,12.95
2023-10-17T17:35:04.712Z,12.45
2023-10-17T17:37:31.257Z,15.85
2023-10-17T17:39:57.856Z,15.63
2023-10-17T17:42:24.399Z,15.38
2023-10-17T17:44:50.934Z,13.35
2023-10-17T17:47:18.757Z,13.85
2023-10-17T17:49:46.812Z,13.63
2023-10-17T17:52:13.264Z,13.77
2023-10-17T17:54:39.828Z,13.05
2023-10-17T17:57:07.096Z,12.82
2023-10-17T17:59:33.975Z,12.85
2023-10-17T18:02:00.516Z,17.83
2023-10-17T18:04:31.508Z,15.75
2023-10-17T18:07:02.011Z,15.25
2023-10-17T18:09:29.396Z,15.68
2023-10-17T18:11:56.518Z,16.40
2023-10-17T18:14:24.079Z,16.48
2023-10-17T18:16:50.625Z,17.17
2023-10-17T18:19:17.145Z,17.38
2023-10-17T18:21:43.692Z,15.45
2023-10-17T18:24:10.670Z,18.80
2023-10-17T18:26:39.220Z,18.92
2023-10-17T18:29:11.398Z,22.67
2023-10-17T18:31:40.316Z,24.65
2023-10-17T18:34:07.313Z,24.33
2023-10-17T18:36:34.553Z,24.15
2023-10-17T18:39:04.134Z,23.77
2023-10-17T18:41:31.661Z,24.00
2023-10-17T18:44:00.238Z,21.58
2023-10-17T18:46:26.880Z,22.45
2023-10-17T18:48:53.467Z,20.88
2023-10-17T18:51:20.455Z,20.42
2023-10-17T18:53:47.320Z,20.75
2023-10-17T18:56:14.807Z,20.38
2023-10-17T18:58:42.176Z,19.83
2023-10-17T19:01:14.756Z,19.70
2023-10-17T19:03:43.168Z,18.05
2023-10-17T19:06:11.205Z,19.33
2023-10-17T19:08:39.152Z,18.08
2023-10-17T19:11:06.157Z,19.70
2023-10-17T19:13:34.466Z,18.88
2023-10-17T19:16:01.385Z,20.83
2023-10-17T19:18:28.932Z,18.00
2023-10-17T19:20:55.845Z,19.83
2023-10-17T19:23:23.015Z,20.13
2023-10-17T19:25:49.831Z,19.52
2023-10-17T19:28:19.552Z,18.10
2023-10-17T19:30:46.808Z,19.05
2023-10-17T19:33:15.443Z,20.00
2023-10-17T19:35:42.039Z,22.42
2023-10-17T19:38:10.733Z,22.95
2023-10-17T19:40:37.777Z,24.15
2023-10-17T19:43:04.617Z,18.95
2023-10-17T19:45:31.743Z,16.65
2023-10-17T19:48:01.605Z,15.65
2023-10-17T19:50:29.015Z,16.17
2023-10-17T19:52:57.251Z,15.93
2023-10-17T19:55:24.268Z,16.85
2023-10-17T19:57:51.345Z,17.80
2023-10-17T20:00:20.456Z,15.57
2023-10-17T20:02:47.834Z,14.25
2023-10-17T20:05:14.650Z,16.70
2023-10-17T20:07:41.600Z,16.42
2023-10-17T20:10:10.250Z,15.00
2023-10-17T20:12:38.179Z,16.17
2023-10-17T20:15:12.153Z,15.60
2023-10-17T20:17:41.516Z,15.63
2023-10-17T20:20:11.402Z,16.23
2023-10-17T20:22:38.310Z,18.20
2023-10-17T20:25:05.573Z,18.30
2023-10-17T20:27:32.335Z,16.58
2023-10-17T20:29:58.941Z,16.92
2023-10-17T20:32:25.806Z,16.63
2023-10-17T20:34:53.134Z,15.88
2023-10-17T20:37:20.023Z,18.17
2023-10-17T20:39:48.171Z,17.10
2023-10-17T20:42:14.977Z,17.95
2023-10-17T20:44:41.551Z,16.17
2023-10-17T20:47:08.085Z,17.08
2023-10-17T20:49:35.422Z,15.98
2023-10-17T20:52:11.123Z,17.40
2023-10-17T20:54:42.613Z,17.15
2023-10-17T20:57:10.276Z,15.13
2023-10-17T20:59:37.196Z,18.42
2023-10-17T21:02:04.833Z,18.15
2023-10-17T21:04:31.684Z,16.83
2023-10-17T21:06:58.253Z,17.33
2023-10-17T21:09:24.745Z,17.20
2023-10-17T21:11:51.159Z,17.23
2023-10-17T21:14:17.592Z,15.77
2023-10-17T21:16:44.332Z,18.08
2023-10-17T21:19:11.317Z,17.30
2023-10-17T21:21:38.548Z,15.18
2023-10-17T21:24:08.488Z,17.05
2023-10-17T21:26:34.983Z,17.98
2023-10-17T21:29:01.792Z,17.92
2023-10-17T21:31:28.654Z,17.52
2023-10-17T21:33:55.301Z,20.17
2023-10-17T21:36:22.430Z,21.92
2023-10-17T21:38:49.991Z,20.83
2023-10-17T21:41:16.959Z,18.60
2023-10-17T21:43:43.695Z,17.60
2023-10-17T21:46:10.823Z,20.95
2023-10-17T21:48:45.421Z,17.55
2023-10-17T21:51:19.373Z,16.45
2023-10-17T21:53:45.861Z,18.08
2023-10-17T21:56:13.671Z,17.75
2023-10-17T21:58:40.160Z,18.38
2023-10-17T22:01:16.562Z,18.00
2023-10-17T22:03:44.125Z,17.92
2023-10-17T22:06:11.140Z,17.08
2023-10-17T22:08:39.640Z,16.08
2023-10-17T22:11:16.528Z,15.02
2023-10-17T22:13:46.174Z,16.40
2023-10-17T22:16:15.073Z,17.17
2023-10-17T22:18:43.136Z,15.98
2023-10-17T22:21:11.209Z,15.57
2023-10-17T22:23:38.075Z,15.40
2023-10-17T22:26:14.177Z,17.42
2023-10-17T22:28:41.042Z,16.85
2023-10-17T22:31:11.465Z,16.95
2023-10-17T22:33:39.154Z,17.15
2023-10-17T22:36:06.729Z,18.20
2023-10-17T22:38:33.302Z,16.85
2023-10-17T22:40:59.752Z,17.13
2023-10-17T22:43:26.200Z,17.15
2023-10-17T22:45:52.655Z,18.65
2023-10-17T22:48:19.120Z,17.42
2023-10-17T22:50:45.841Z,16.52
2023-10-17T22:53:13.236Z,17.95
2023-10-17T22:55:40.577Z,17.83
2023-10-17T22:58:08.160Z,19.13
2023-10-17T23:00:35.456Z,19.45
2023-10-17T23:03:03.921Z,20.25
2023-10-17T23:05:30.392Z,18.90
2023-10-17T23:07:56.784Z,19.65
2023-10-17T23:10:23.491Z,18.38
2023-10-17T23:12:49.939Z,18.15
2023-10-17T23:15:16.458Z,18.48
2023-10-17T23:17:46.624Z,19.35
2023-10-17T23:20:16.018Z,18.08
2023-10-17T23:22:46.933Z,17.05
2023-10-17T23:25:14.205Z,18.88
2023-10-17T23:27:42.044Z,18.48
2023-10-17T23:30:16.014Z,18.77
2023-10-17T23:32:44.901Z,18.98
2023-10-17T23:35:12.000Z,18.90
2023-10-17T23:37:39.898Z,19.05
2023-10-17T23:40:11.332Z,19.42
2023-10-17T23:42:38.316Z,18.95
2023-10-17T23:45:05.685Z,17.75
2023-10-17T23:47:36.316Z,18.73
2023-10-17T23:50:11.724Z,17.27
2023-10-17T23:52:40.841Z,18.27
2023-10-17T23:55:09.205Z,16.30
2023-10-17T23:57:36.938Z,17.80
